Thunder radar more information blitzortung!


Radar de pluja more information rain snow radar


Visita la nostra xarxa de llocs de meteo:

Template documentation
and downloads

And another site



No particular awareness of the weather is required.    There are no Weather-warnings

Pagina Historial Weather Underground text

Diari Resum February 18, 2019 Unitats:  Tant    Imperial   Mètric
« Previous Dia
SegĂźent Dia »
Diari Setmana Mensual Anual Personalitzada
  Actual: Maxima: Minima: Media:
Temperatura: 10.2 °F /  -12.1 °C TemperatureC °F /  -17.8 °C 2.5 °F /  -16.4 °C 8.1 °F /  -13.3 °C
Punt de rosada: 5.4 °F /  -14.8 °C DewpointC °F /  -17.8 °C -0.9 °F /  -18.3 °C 3.2 °F /  -16 °C
Humitat: 72 % Humidity % 57 % 71 %
Wind Speed: 0.0 mph /  0 km/h WindSpeedKMH mph /  0 km/h - 3.7 mph /  6 km/h
RĂ fegues de vent: 3.2 mph /  5.1 km/h WindSpeedGustKMH mph /  0 km/h - -
Vent:Calm - - SE
Pression baro: 1020.9 in /  34567.7 hPa PressurehPa in /  0 hPa 1019.9 in /  34533.8 hPa -
Precipitacions: 0.0 in /  0 mm      
Historical Graphs
 
 
Dades de taula per February 18, 2019
Temps Temperatura Punt de rosada Pression baro Vent Wind Speed RĂ fegues de vent Humitat Rainfall Rate (Hourly)
TemperatureC °F /  -17.8 °C DewpointC °F /  -17.8 °C PressurehPa in /  0 hPa Calm     Humidity % HourlyPrecipMM in /  0 mm
00:04 6.3 °F /  -14.3 °C 1.8 °F /  -16.8 °C 1023.9 in /  34669.3 hPa Calm     73 % 0.0 in /  0 mm
00:09 6.2 °F /  -14.3 °C 1.7 °F /  -16.8 °C 1023.9 in /  34669.3 hPa Calm     73 % 0.0 in /  0 mm
00:14 6.2 °F /  -14.3 °C 1.7 °F /  -16.8 °C 1023.9 in /  34669.3 hPa Calm     73 % 0.0 in /  0 mm
00:19 6.2 °F /  -14.3 °C 1.5 °F /  -16.9 °C 1023.9 in /  34669.3 hPa Calm     72 % 0.0 in /  0 mm
00:24 6.2 °F /  -14.3 °C 1.5 °F /  -16.9 °C 1023.9 in /  34669.3 hPa Calm     72 % 0.0 in /  0 mm
00:29 6.2 °F /  -14.3 °C 1.9 °F /  -16.7 °C 1023.9 in /  34669.3 hPa Calm     74 % 0.0 in /  0 mm
00:34 6.1 °F /  -14.4 °C 1.8 °F /  -16.8 °C 1023.9 in /  34669.3 hPa Calm     74 % 0.0 in /  0 mm
00:39 6.0 °F /  -14.4 °C 1.9 °F /  -16.7 °C 1023.9 in /  34669.3 hPa Calm     75 % 0.0 in /  0 mm
00:44 6.0 °F /  -14.4 °C 1.9 °F /  -16.7 °C 1023.9 in /  34669.3 hPa Calm     75 % 0.0 in /  0 mm
00:49 6.0 °F /  -14.4 °C 1.7 °F /  -16.8 °C 1023.9 in /  34669.3 hPa Calm     74 % 0.0 in /  0 mm
00:54 5.9 °F /  -14.5 °C 1.8 °F /  -16.8 °C 1023.9 in /  34669.3 hPa Calm     75 % 0.0 in /  0 mm
00:59 5.7 °F /  -14.6 °C 1.6 °F /  -16.9 °C 1023.9 in /  34669.3 hPa ENE 1.9 mph /  3.1 km/h   75 % 0.0 in /  0 mm
01:04 5.7 °F /  -14.6 °C 1.6 °F /  -16.9 °C 1023.9 in /  34669.3 hPa ENE 1.9 mph /  3.1 km/h   75 % 0.0 in /  0 mm
01:09 5.7 °F /  -14.6 °C 1.6 °F /  -16.9 °C 1023.9 in /  34669.3 hPa ENE 3.7 mph /  6 km/h 2.3 mph /  3.7 km/h 75 % 0.0 in /  0 mm
01:14 5.7 °F /  -14.6 °C 1.8 °F /  -16.8 °C 1023.9 in /  34669.3 hPa Calm     76 % 0.0 in /  0 mm
01:19 5.6 °F /  -14.7 °C 1.7 °F /  -16.8 °C 1023.9 in /  34669.3 hPa ENE 3.7 mph /  6 km/h   76 % 0.0 in /  0 mm
01:24 5.3 °F /  -14.8 °C 1.2 °F /  -17.1 °C 1023.9 in /  34669.3 hPa Calm     75 % 0.0 in /  0 mm
01:29 5.1 °F /  -14.9 °C 0.8 °F /  -17.3 °C 1023.9 in /  34669.3 hPa Calm     74 % 0.0 in /  0 mm
01:34 5.0 °F /  -15 °C 0.9 °F /  -17.3 °C 1023.9 in /  34669.3 hPa Calm     75 % 0.0 in /  0 mm
01:39 4.9 °F /  -15.1 °C 0.8 °F /  -17.3 °C 1023.9 in /  34669.3 hPa Calm     75 % 0.0 in /  0 mm
01:44 4.9 °F /  -15.1 °C 0.8 °F /  -17.3 °C 1023.9 in /  34669.3 hPa Calm     75 % 0.0 in /  0 mm
01:49 4.9 °F /  -15.1 °C 0.8 °F /  -17.3 °C 1023.9 in /  34669.3 hPa Calm     75 % 0.0 in /  0 mm
01:54 4.8 °F /  -15.1 °C 0.7 °F /  -17.4 °C 1023.9 in /  34669.3 hPa Calm     75 % 0.0 in /  0 mm
01:59 4.7 °F /  -15.2 °C 0.7 °F /  -17.4 °C 1023.9 in /  34669.3 hPa Calm     75 % 0.0 in /  0 mm
02:04 4.6 °F /  -15.2 °C 0.6 °F /  -17.4 °C 1023.9 in /  34669.3 hPa Calm     75 % 0.0 in /  0 mm
02:09 4.5 °F /  -15.3 °C 0.4 °F /  -17.6 °C 1023.9 in /  34669.3 hPa Calm     75 % 0.0 in /  0 mm
02:14 4.3 °F /  -15.4 °C 0.1 °F /  -17.7 °C 1023.9 in /  34669.3 hPa Calm     74 % 0.0 in /  0 mm
02:19 4.2 °F /  -15.4 °C -0.2 °F /  -17.9 °C 1023.9 in /  34669.3 hPa WSW 1.9 mph /  3.1 km/h 2.3 mph /  3.7 km/h 73 % 0.0 in /  0 mm
02:24 4.2 °F /  -15.4 °C -0.2 °F /  -17.9 °C 1023.9 in /  34669.3 hPa WSW 1.9 mph /  3.1 km/h 2.3 mph /  3.7 km/h 73 % 0.0 in /  0 mm
02:29 4.2 °F /  -15.4 °C 0.0 °F /  -17.8 °C 1023.9 in /  34669.3 hPa Calm     74 % 0.0 in /  0 mm
02:34 4.1 °F /  -15.5 °C -0.1 °F /  -17.8 °C 1023.9 in /  34669.3 hPa Calm     74 % 0.0 in /  0 mm
02:39 4.1 °F /  -15.5 °C -0.1 °F /  -17.8 °C 1023.9 in /  34669.3 hPa Calm     74 % 0.0 in /  0 mm
02:44 4.1 °F /  -15.5 °C -0.1 °F /  -17.8 °C 1023.9 in /  34669.3 hPa WSW 1.9 mph /  3.1 km/h 1.9 mph /  3.1 km/h 74 % 0.0 in /  0 mm
02:49 4.1 °F /  -15.5 °C -0.1 °F /  -17.8 °C 1023.9 in /  34669.3 hPa Calm   1.4 mph /  2.3 km/h 74 % 0.0 in /  0 mm
02:54 4.1 °F /  -15.5 °C -0.1 °F /  -17.8 °C 1023.9 in /  34669.3 hPa Calm     74 % 0.0 in /  0 mm
02:59 4.2 °F /  -15.4 °C -0.2 °F /  -17.9 °C 1023.9 in /  34669.3 hPa SW 1.9 mph /  3.1 km/h 2.3 mph /  3.7 km/h 73 % 0.0 in /  0 mm
03:04 4.0 °F /  -15.6 °C -0.2 °F /  -17.9 °C 1023.9 in /  34669.3 hPa WSW 1.9 mph /  3.1 km/h 2.6 mph /  4.2 km/h 74 % 0.0 in /  0 mm
03:09 4.0 °F /  -15.6 °C -0.2 °F /  -17.9 °C 1023.9 in /  34669.3 hPa SW 1.9 mph /  3.1 km/h 3.5 mph /  5.6 km/h 74 % 0.0 in /  0 mm
03:14 4.0 °F /  -15.6 °C -0.2 °F /  -17.9 °C 1023.9 in /  34669.3 hPa WSW 3.7 mph /  6 km/h 3.2 mph /  5.1 km/h 74 % 0.0 in /  0 mm
03:19 4.0 °F /  -15.6 °C -0.1 °F /  -17.8 °C 1023.9 in /  34669.3 hPa WSW 3.7 mph /  6 km/h 3.2 mph /  5.1 km/h 75 % 0.0 in /  0 mm
03:24 4.0 °F /  -15.6 °C -0.1 °F /  -17.8 °C 1023.9 in /  34669.3 hPa WSW 1.9 mph /  3.1 km/h   75 % 0.0 in /  0 mm
03:29 4.2 °F /  -15.4 °C 0.2 °F /  -17.7 °C 1023.9 in /  34669.3 hPa WSW 3.7 mph /  6 km/h 1.4 mph /  2.3 km/h 75 % 0.0 in /  0 mm
03:34 4.3 °F /  -15.4 °C 0.3 °F /  -17.6 °C 1023.9 in /  34669.3 hPa West 3.7 mph /  6 km/h 2.3 mph /  3.7 km/h 75 % 0.0 in /  0 mm
03:39 4.3 °F /  -15.4 °C 0.3 °F /  -17.6 °C 1023.9 in /  34669.3 hPa WSW 2.6 mph /  4.2 km/h 1.9 mph /  3.1 km/h 75 % 0.0 in /  0 mm
03:44 4.1 °F /  -15.5 °C 0.2 °F /  -17.7 °C 1022.9 in /  34635.4 hPa WSW 1.9 mph /  3.1 km/h 1.9 mph /  3.1 km/h 76 % 0.0 in /  0 mm
03:49 4.2 °F /  -15.4 °C 0.5 °F /  -17.5 °C 1022.9 in /  34635.4 hPa WSW 2.6 mph /  4.2 km/h 1.9 mph /  3.1 km/h 77 % 0.0 in /  0 mm
03:54 4.3 °F /  -15.4 °C 0.4 °F /  -17.6 °C 1022.9 in /  34635.4 hPa WSW 1.9 mph /  3.1 km/h 1.9 mph /  3.1 km/h 76 % 0.0 in /  0 mm
03:59 4.3 °F /  -15.4 °C 0.6 °F /  -17.4 °C 1022.9 in /  34635.4 hPa WSW 1.9 mph /  3.1 km/h 1.9 mph /  3.1 km/h 77 % 0.0 in /  0 mm
04:04 4.2 °F /  -15.4 °C 0.5 °F /  -17.5 °C 1022.9 in /  34635.4 hPa WSW 1.9 mph /  3.1 km/h 1.9 mph /  3.1 km/h 77 % 0.0 in /  0 mm
04:09 4.1 °F /  -15.5 °C 0.4 °F /  -17.6 °C 1022.9 in /  34635.4 hPa WSW 2.6 mph /  4.2 km/h 1.9 mph /  3.1 km/h 77 % 0.0 in /  0 mm
04:14 3.9 °F /  -15.6 °C 0.1 °F /  -17.7 °C 1022.9 in /  34635.4 hPa WSW 1.9 mph /  3.1 km/h 1.9 mph /  3.1 km/h 76 % 0.0 in /  0 mm
04:19 3.8 °F /  -15.7 °C -0.1 °F /  -17.8 °C 1022.9 in /  34635.4 hPa West 1.9 mph /  3.1 km/h 2.6 mph /  4.2 km/h 76 % 0.0 in /  0 mm
04:24 3.9 °F /  -15.6 °C 0.1 °F /  -17.7 °C 1022.9 in /  34635.4 hPa West 3.5 mph /  5.6 km/h 3.5 mph /  5.6 km/h 76 % 0.0 in /  0 mm
04:29 3.8 °F /  -15.7 °C -0.1 °F /  -17.8 °C 1022.9 in /  34635.4 hPa WSW 3.7 mph /  6 km/h 2.3 mph /  3.7 km/h 76 % 0.0 in /  0 mm
04:34 3.9 °F /  -15.6 °C 0.2 °F /  -17.7 °C 1022.9 in /  34635.4 hPa WSW 3.7 mph /  6 km/h 2.6 mph /  4.2 km/h 77 % 0.0 in /  0 mm
04:39 3.9 °F /  -15.6 °C 0.2 °F /  -17.7 °C 1022.9 in /  34635.4 hPa WSW 1.9 mph /  3.1 km/h 2.3 mph /  3.7 km/h 77 % 0.0 in /  0 mm
04:44 3.8 °F /  -15.7 °C 0.1 °F /  -17.7 °C 1022.9 in /  34635.4 hPa Calm   1.4 mph /  2.3 km/h 77 % 0.0 in /  0 mm
04:49 3.8 °F /  -15.7 °C 0.3 °F /  -17.6 °C 1022.9 in /  34635.4 hPa Calm     78 % 0.0 in /  0 mm
04:54 3.8 °F /  -15.7 °C 0.3 °F /  -17.6 °C 1022.9 in /  34635.4 hPa Calm     78 % 0.0 in /  0 mm
04:59 3.8 °F /  -15.7 °C 0.5 °F /  -17.5 °C 1022.9 in /  34635.4 hPa Calm     79 % 0.0 in /  0 mm
05:04 3.7 °F /  -15.7 °C 0.2 °F /  -17.7 °C 1022.9 in /  34635.4 hPa WSW 1.9 mph /  3.1 km/h   78 % 0.0 in /  0 mm
05:09 3.6 °F /  -15.8 °C 0.1 °F /  -17.7 °C 1022.9 in /  34635.4 hPa Calm     78 % 0.0 in /  0 mm
05:14 3.5 °F /  -15.8 °C 0.0 °F /  -17.8 °C 1022.9 in /  34635.4 hPa Calm     78 % 0.0 in /  0 mm
05:19 3.8 °F /  -15.7 °C 0.5 °F /  -17.5 °C 1022.9 in /  34635.4 hPa NW 3.2 mph /  5.1 km/h 1.9 mph /  3.1 km/h 79 % 0.0 in /  0 mm
05:24 4.0 °F /  -15.6 °C 0.5 °F /  -17.5 °C 1022.9 in /  34635.4 hPa Calm     78 % 0.0 in /  0 mm
05:29 4.0 °F /  -15.6 °C 0.5 °F /  -17.5 °C 1022.9 in /  34635.4 hPa Calm     78 % 0.0 in /  0 mm
05:34 4.0 °F /  -15.6 °C 0.7 °F /  -17.4 °C 1022.9 in /  34635.4 hPa Calm     79 % 0.0 in /  0 mm
05:39 4.0 °F /  -15.6 °C 0.5 °F /  -17.5 °C 1022.9 in /  34635.4 hPa Calm     78 % 0.0 in /  0 mm
05:44 3.8 °F /  -15.7 °C 0.3 °F /  -17.6 °C 1022.9 in /  34635.4 hPa Calm     78 % 0.0 in /  0 mm
05:49 3.9 °F /  -15.6 °C 0.4 °F /  -17.6 °C 1022.9 in /  34635.4 hPa Calm     78 % 0.0 in /  0 mm
05:54 3.8 °F /  -15.7 °C 0.5 °F /  -17.5 °C 1022.9 in /  34635.4 hPa Calm     79 % 0.0 in /  0 mm
05:59 3.9 °F /  -15.6 °C 0.6 °F /  -17.4 °C 1022.9 in /  34635.4 hPa Calm     79 % 0.0 in /  0 mm
06:04 3.9 °F /  -15.6 °C 0.6 °F /  -17.4 °C 1022.9 in /  34635.4 hPa Calm     79 % 0.0 in /  0 mm
06:09 3.9 °F /  -15.6 °C 0.6 °F /  -17.4 °C 1022.9 in /  34635.4 hPa Calm     79 % 0.0 in /  0 mm
06:14 3.7 °F /  -15.7 °C 0.4 °F /  -17.6 °C 1022.9 in /  34635.4 hPa Calm     79 % 0.0 in /  0 mm
06:19 3.6 °F /  -15.8 °C 0.3 °F /  -17.6 °C 1022.9 in /  34635.4 hPa Calm     79 % 0.0 in /  0 mm
06:24 3.8 °F /  -15.7 °C 0.5 °F /  -17.5 °C 1022.9 in /  34635.4 hPa NW 1.9 mph /  3.1 km/h 1.4 mph /  2.3 km/h 79 % 0.0 in /  0 mm
06:29 3.8 °F /  -15.7 °C 0.5 °F /  -17.5 °C 1022.9 in /  34635.4 hPa Calm     79 % 0.0 in /  0 mm
06:34 3.7 °F /  -15.7 °C 0.4 °F /  -17.6 °C 1022.9 in /  34635.4 hPa Calm     79 % 0.0 in /  0 mm
06:39 3.5 °F /  -15.8 °C 0.2 °F /  -17.7 °C 1022.9 in /  34635.4 hPa Calm     79 % 0.0 in /  0 mm
06:44 3.3 °F /  -15.9 °C 0.0 °F /  -17.8 °C 1022.9 in /  34635.4 hPa Calm     79 % 0.0 in /  0 mm
06:49 3.2 °F /  -16 °C -0.1 °F /  -17.8 °C 1022.9 in /  34635.4 hPa Calm     79 % 0.0 in /  0 mm
06:54 3.1 °F /  -16.1 °C -0.2 °F /  -17.9 °C 1022.9 in /  34635.4 hPa Calm     79 % 0.0 in /  0 mm
06:59 3.0 °F /  -16.1 °C -0.3 °F /  -17.9 °C 1022.9 in /  34635.4 hPa Calm     79 % 0.0 in /  0 mm
07:04 2.8 °F /  -16.2 °C -0.5 °F /  -18.1 °C 1022.9 in /  34635.4 hPa Calm     79 % 0.0 in /  0 mm
07:09 2.7 °F /  -16.3 °C -0.8 °F /  -18.2 °C 1022.9 in /  34635.4 hPa Calm     78 % 0.0 in /  0 mm
07:14 2.6 °F /  -16.3 °C -0.8 °F /  -18.2 °C 1022.9 in /  34635.4 hPa West 3.9 mph /  6.3 km/h 2.3 mph /  3.7 km/h 78 % 0.0 in /  0 mm
07:19 2.7 °F /  -16.3 °C -0.8 °F /  -18.2 °C 1022.9 in /  34635.4 hPa Calm     78 % 0.0 in /  0 mm
07:24 2.6 °F /  -16.3 °C -0.8 °F /  -18.2 °C 1022.9 in /  34635.4 hPa Calm     78 % 0.0 in /  0 mm
07:29 2.6 °F /  -16.3 °C -0.8 °F /  -18.2 °C 1022.9 in /  34635.4 hPa Calm     78 % 0.0 in /  0 mm
07:34 2.5 °F /  -16.4 °C -0.9 °F /  -18.3 °C 1022.9 in /  34635.4 hPa Calm     78 % 0.0 in /  0 mm
07:39 2.5 °F /  -16.4 °C -0.9 °F /  -18.3 °C 1022.9 in /  34635.4 hPa Calm     78 % 0.0 in /  0 mm
07:44 2.5 °F /  -16.4 °C -0.9 °F /  -18.3 °C 1022.9 in /  34635.4 hPa WSW 1.9 mph /  3.1 km/h 2.3 mph /  3.7 km/h 78 % 0.0 in /  0 mm
07:49 2.6 °F /  -16.3 °C -0.8 °F /  -18.2 °C 1022.9 in /  34635.4 hPa Calm     78 % 0.0 in /  0 mm
07:54 2.6 °F /  -16.3 °C -0.8 °F /  -18.2 °C 1022.9 in /  34635.4 hPa WSW 1.9 mph /  3.1 km/h   78 % 0.0 in /  0 mm
07:59 2.7 °F /  -16.3 °C -0.8 °F /  -18.2 °C 1022.9 in /  34635.4 hPa West 3.7 mph /  6 km/h 2.6 mph /  4.2 km/h 78 % 0.0 in /  0 mm
08:04 2.6 °F /  -16.3 °C -0.8 °F /  -18.2 °C 1022.9 in /  34635.4 hPa West 1.9 mph /  3.1 km/h 2.3 mph /  3.7 km/h 78 % 0.0 in /  0 mm
08:09 2.7 °F /  -16.3 °C -0.8 °F /  -18.2 °C 1022.9 in /  34635.4 hPa Calm     78 % 0.0 in /  0 mm
08:14 2.8 °F /  -16.2 °C -0.7 °F /  -18.2 °C 1022.9 in /  34635.4 hPa Calm     78 % 0.0 in /  0 mm
08:19 2.8 °F /  -16.2 °C -0.7 °F /  -18.2 °C 1022.9 in /  34635.4 hPa SW 2.3 mph /  3.7 km/h 1.9 mph /  3.1 km/h 78 % 0.0 in /  0 mm
08:24 2.9 °F /  -16.2 °C -0.6 °F /  -18.1 °C 1022.9 in /  34635.4 hPa WSW 1.9 mph /  3.1 km/h   78 % 0.0 in /  0 mm
08:29 2.9 °F /  -16.2 °C -0.4 °F /  -18 °C 1023.9 in /  34669.3 hPa WSW 1.9 mph /  3.1 km/h   79 % 0.0 in /  0 mm
08:34 3.1 °F /  -16.1 °C -0.2 °F /  -17.9 °C 1023.9 in /  34669.3 hPa WSW 2.3 mph /  3.7 km/h   79 % 0.0 in /  0 mm
08:39 3.1 °F /  -16.1 °C -0.2 °F /  -17.9 °C 1023.9 in /  34669.3 hPa WSW 1.9 mph /  3.1 km/h   79 % 0.0 in /  0 mm
08:44 3.1 °F /  -16.1 °C -0.2 °F /  -17.9 °C 1023.9 in /  34669.3 hPa Calm     79 % 0.0 in /  0 mm
08:49 3.1 °F /  -16.1 °C -0.2 °F /  -17.9 °C 1023.9 in /  34669.3 hPa Calm     79 % 0.0 in /  0 mm
08:54 3.1 °F /  -16.1 °C -0.2 °F /  -17.9 °C 1023.9 in /  34669.3 hPa Calm     79 % 0.0 in /  0 mm
08:59 3.3 °F /  -15.9 °C 0.2 °F /  -17.7 °C 1023.9 in /  34669.3 hPa Calm     80 % 0.0 in /  0 mm
09:04 3.3 °F /  -15.9 °C 0.2 °F /  -17.7 °C 1023.9 in /  34669.3 hPa Calm     80 % 0.0 in /  0 mm
09:09 3.5 °F /  -15.8 °C 0.4 °F /  -17.6 °C 1023.9 in /  34669.3 hPa Calm     80 % 0.0 in /  0 mm
09:14 3.7 °F /  -15.7 °C 0.6 °F /  -17.4 °C 1023.9 in /  34669.3 hPa Calm     80 % 0.0 in /  0 mm
09:19 3.8 °F /  -15.7 °C 0.7 °F /  -17.4 °C 1023.9 in /  34669.3 hPa West 1.9 mph /  3.1 km/h   80 % 0.0 in /  0 mm
09:24 4.0 °F /  -15.6 °C 0.8 °F /  -17.3 °C 1023.9 in /  34669.3 hPa Calm     80 % 0.0 in /  0 mm
09:29 4.3 °F /  -15.4 °C 1.3 °F /  -17.1 °C 1023.9 in /  34669.3 hPa Calm     81 % 0.0 in /  0 mm
09:34 4.5 °F /  -15.3 °C 1.5 °F /  -16.9 °C 1023.9 in /  34669.3 hPa NNE 1.9 mph /  3.1 km/h   81 % 0.0 in /  0 mm
09:39 4.7 °F /  -15.2 °C 1.6 °F /  -16.9 °C 1023.9 in /  34669.3 hPa West 3.7 mph /  6 km/h 1.9 mph /  3.1 km/h 80 % 0.0 in /  0 mm
09:44 5.1 °F /  -14.9 °C 2.1 °F /  -16.6 °C 1023.9 in /  34669.3 hPa NNE 2.6 mph /  4.2 km/h 1.4 mph /  2.3 km/h 81 % 0.0 in /  0 mm
09:49 5.3 °F /  -14.8 °C 2.1 °F /  -16.6 °C 1023.9 in /  34669.3 hPa NE 2.3 mph /  3.7 km/h 1.9 mph /  3.1 km/h 80 % 0.0 in /  0 mm
09:54 5.4 °F /  -14.8 °C 2.2 °F /  -16.6 °C 1023.9 in /  34669.3 hPa WNW 3.7 mph /  6 km/h   80 % 0.0 in /  0 mm
09:59 5.7 °F /  -14.6 °C 2.5 °F /  -16.4 °C 1023.9 in /  34669.3 hPa ENE 1.9 mph /  3.1 km/h 1.4 mph /  2.3 km/h 80 % 0.0 in /  0 mm
10:04 6.1 °F /  -14.4 °C 2.9 °F /  -16.2 °C 1023.9 in /  34669.3 hPa East 3.7 mph /  6 km/h   80 % 0.0 in /  0 mm
10:09 6.5 °F /  -14.2 °C 3.1 °F /  -16.1 °C 1023.9 in /  34669.3 hPa Calm   1.9 mph /  3.1 km/h 79 % 0.0 in /  0 mm
10:14 6.5 °F /  -14.2 °C 3.1 °F /  -16.1 °C 1023.9 in /  34669.3 hPa NNE 3.7 mph /  6 km/h   79 % 0.0 in /  0 mm
10:19 7.0 °F /  -13.9 °C 3.6 °F /  -15.8 °C 1023.9 in /  34669.3 hPa South 1.9 mph /  3.1 km/h   79 % 0.0 in /  0 mm
10:24 7.3 °F /  -13.7 °C 3.7 °F /  -15.7 °C 1023.9 in /  34669.3 hPa ESE 3.5 mph /  5.6 km/h 1.9 mph /  3.1 km/h 78 % 0.0 in /  0 mm
10:29 7.3 °F /  -13.7 °C 3.7 °F /  -15.7 °C 1023.9 in /  34669.3 hPa NNE 3.7 mph /  6 km/h 3.2 mph /  5.1 km/h 78 % 0.0 in /  0 mm
10:34 7.2 °F /  -13.8 °C 3.4 °F /  -15.9 °C 1023.9 in /  34669.3 hPa ENE 5.6 mph /  9 km/h 2.6 mph /  4.2 km/h 77 % 0.0 in /  0 mm
10:39 7.6 °F /  -13.6 °C 3.8 °F /  -15.7 °C 1023.9 in /  34669.3 hPa NNW 3.7 mph /  6 km/h 2.6 mph /  4.2 km/h 77 % 0.0 in /  0 mm
10:44 7.6 °F /  -13.6 °C 3.8 °F /  -15.7 °C 1023.9 in /  34669.3 hPa South 1.9 mph /  3.1 km/h 1.4 mph /  2.3 km/h 77 % 0.0 in /  0 mm
10:49 8.1 °F /  -13.3 °C 4.3 °F /  -15.4 °C 1023.9 in /  34669.3 hPa ENE 3.7 mph /  6 km/h 1.9 mph /  3.1 km/h 77 % 0.0 in /  0 mm
10:54 8.0 °F /  -13.3 °C 4.0 °F /  -15.6 °C 1023.9 in /  34669.3 hPa NNE 5.8 mph /  9.3 km/h 1.9 mph /  3.1 km/h 76 % 0.0 in /  0 mm
10:59 8.3 °F /  -13.2 °C 4.1 °F /  -15.5 °C 1023.9 in /  34669.3 hPa NNE 5.8 mph /  9.3 km/h 1.9 mph /  3.1 km/h 75 % 0.0 in /  0 mm
11:04 8.4 °F /  -13.1 °C 4.2 °F /  -15.4 °C 1023.9 in /  34669.3 hPa NNE 5.6 mph /  9 km/h 1.9 mph /  3.1 km/h 75 % 0.0 in /  0 mm
11:09 8.5 °F /  -13.1 °C 4.1 °F /  -15.5 °C 1023.9 in /  34669.3 hPa ENE 5.6 mph /  9 km/h 1.9 mph /  3.1 km/h 74 % 0.0 in /  0 mm
11:14 8.5 °F /  -13.1 °C 4.1 °F /  -15.5 °C 1023.9 in /  34669.3 hPa NNE 4.7 mph /  7.6 km/h 3.5 mph /  5.6 km/h 74 % 0.0 in /  0 mm
11:19 8.6 °F /  -13 °C 4.1 °F /  -15.5 °C 1023.9 in /  34669.3 hPa ENE 3.9 mph /  6.3 km/h   73 % 0.0 in /  0 mm
11:24 9.0 °F /  -12.8 °C 4.2 °F /  -15.4 °C 1023.9 in /  34669.3 hPa SSE 5.6 mph /  9 km/h 3.2 mph /  5.1 km/h 72 % 0.0 in /  0 mm
11:29 9.4 °F /  -12.6 °C 4.6 °F /  -15.2 °C 1023.9 in /  34669.3 hPa East 2.3 mph /  3.7 km/h   72 % 0.0 in /  0 mm
11:34 9.6 °F /  -12.4 °C 4.8 °F /  -15.1 °C 1023.9 in /  34669.3 hPa NW 3.7 mph /  6 km/h 1.9 mph /  3.1 km/h 72 % 0.0 in /  0 mm
11:39 9.7 °F /  -12.4 °C 4.7 °F /  -15.2 °C 1023.9 in /  34669.3 hPa SSW 3.7 mph /  6 km/h 1.4 mph /  2.3 km/h 71 % 0.0 in /  0 mm
11:44 10.1 °F /  -12.2 °C 5.1 °F /  -14.9 °C 1023.9 in /  34669.3 hPa ESE 5.6 mph /  9 km/h 2.3 mph /  3.7 km/h 71 % 0.0 in /  0 mm
11:49 10.4 °F /  -12 °C 5.4 °F /  -14.8 °C 1023.9 in /  34669.3 hPa NNE 1.9 mph /  3.1 km/h   71 % 0.0 in /  0 mm
11:54 10.6 °F /  -11.9 °C 5.3 °F /  -14.8 °C 1023.9 in /  34669.3 hPa NNW 3.7 mph /  6 km/h 3.9 mph /  6.3 km/h 70 % 0.0 in /  0 mm
11:59 10.9 °F /  -11.7 °C 5.4 °F /  -14.8 °C 1022.9 in /  34635.4 hPa WNW 3.7 mph /  6 km/h   69 % 0.0 in /  0 mm
12:04 11.3 °F /  -11.5 °C 5.8 °F /  -14.6 °C 1022.9 in /  34635.4 hPa ENE 1.9 mph /  3.1 km/h 1.9 mph /  3.1 km/h 69 % 0.0 in /  0 mm
12:09 11.5 °F /  -11.4 °C 6.0 °F /  -14.4 °C 1022.9 in /  34635.4 hPa ENE 3.9 mph /  6.3 km/h 3.5 mph /  5.6 km/h 69 % 0.0 in /  0 mm
12:14 11.4 °F /  -11.4 °C 5.7 °F /  -14.6 °C 1022.9 in /  34635.4 hPa NNE 3.7 mph /  6 km/h 1.9 mph /  3.1 km/h 68 % 0.0 in /  0 mm
12:19 11.5 °F /  -11.4 °C 6.0 °F /  -14.4 °C 1022.9 in /  34635.4 hPa NNW 5.6 mph /  9 km/h 3.2 mph /  5.1 km/h 69 % 0.0 in /  0 mm
12:24 11.8 °F /  -11.2 °C 6.1 °F /  -14.4 °C 1022.9 in /  34635.4 hPa ESE 6.1 mph /  9.8 km/h 4.7 mph /  7.6 km/h 68 % 0.0 in /  0 mm
12:29 11.7 °F /  -11.3 °C 6.0 °F /  -14.4 °C 1022.9 in /  34635.4 hPa North 5.6 mph /  9 km/h 6.1 mph /  9.8 km/h 68 % 0.0 in /  0 mm
12:34 11.8 °F /  -11.2 °C 5.9 °F /  -14.5 °C 1022.9 in /  34635.4 hPa SSE 5.6 mph /  9 km/h 3.2 mph /  5.1 km/h 67 % 0.0 in /  0 mm
12:39 12.3 °F /  -10.9 °C 6.6 °F /  -14.1 °C 1022.9 in /  34635.4 hPa WSW 3.7 mph /  6 km/h 1.9 mph /  3.1 km/h 68 % 0.0 in /  0 mm
12:44 12.4 °F /  -10.9 °C 6.4 °F /  -14.2 °C 1022.9 in /  34635.4 hPa SE 5.8 mph /  9.3 km/h 5.0 mph /  8 km/h 67 % 0.0 in /  0 mm
12:49 12.7 °F /  -10.7 °C 6.7 °F /  -14.1 °C 1022.9 in /  34635.4 hPa NNE 4.7 mph /  7.6 km/h 2.3 mph /  3.7 km/h 67 % 0.0 in /  0 mm
12:54 12.4 °F /  -10.9 °C 6.2 °F /  -14.3 °C 1022.9 in /  34635.4 hPa NNE 1.9 mph /  3.1 km/h   66 % 0.0 in /  0 mm
12:59 12.6 °F /  -10.8 °C 6.4 °F /  -14.2 °C 1021.9 in /  34601.5 hPa SE 5.6 mph /  9 km/h 3.9 mph /  6.3 km/h 66 % 0.0 in /  0 mm
13:04 12.9 °F /  -10.6 °C 6.5 °F /  -14.2 °C 1021.9 in /  34601.5 hPa ENE 6.1 mph /  9.8 km/h 5.0 mph /  8 km/h 65 % 0.0 in /  0 mm
13:09 12.9 °F /  -10.6 °C 6.5 °F /  -14.2 °C 1021.9 in /  34601.5 hPa NE 7.4 mph /  11.9 km/h 5.3 mph /  8.5 km/h 65 % 0.0 in /  0 mm
13:14 12.8 °F /  -10.7 °C 6.4 °F /  -14.2 °C 1021.9 in /  34601.5 hPa East 5.6 mph /  9 km/h 3.5 mph /  5.6 km/h 65 % 0.0 in /  0 mm
13:19 12.9 °F /  -10.6 °C 6.2 °F /  -14.3 °C 1021.9 in /  34601.5 hPa ESE 5.0 mph /  8 km/h 5.0 mph /  8 km/h 64 % 0.0 in /  0 mm
13:24 12.9 °F /  -10.6 °C 6.2 °F /  -14.3 °C 1021.9 in /  34601.5 hPa ENE 5.8 mph /  9.3 km/h 3.5 mph /  5.6 km/h 64 % 0.0 in /  0 mm
13:29 13.2 °F /  -10.4 °C 6.6 °F /  -14.1 °C 1021.9 in /  34601.5 hPa SE 5.6 mph /  9 km/h 6.1 mph /  9.8 km/h 64 % 0.0 in /  0 mm
13:34 13.4 °F /  -10.3 °C 6.7 °F /  -14.1 °C 1021.9 in /  34601.5 hPa NNE 5.0 mph /  8 km/h 1.9 mph /  3.1 km/h 64 % 0.0 in /  0 mm
13:39 13.4 °F /  -10.3 °C 6.5 °F /  -14.2 °C 1021.9 in /  34601.5 hPa ESE 7.4 mph /  11.9 km/h 7.2 mph /  11.6 km/h 63 % 0.0 in /  0 mm
13:44 13.6 °F /  -10.2 °C 6.7 °F /  -14.1 °C 1021.9 in /  34601.5 hPa SE 4.7 mph /  7.6 km/h 3.2 mph /  5.1 km/h 63 % 0.0 in /  0 mm
13:49 13.6 °F /  -10.2 °C 6.7 °F /  -14.1 °C 1021.9 in /  34601.5 hPa SE 9.3 mph /  15 km/h 5.8 mph /  9.3 km/h 63 % 0.0 in /  0 mm
13:54 13.9 °F /  -10.1 °C 6.9 °F /  -13.9 °C 1021.9 in /  34601.5 hPa East 11.1 mph /  17.9 km/h 4.7 mph /  7.6 km/h 63 % 0.0 in /  0 mm
13:59 14.7 °F /  -9.6 °C 7.7 °F /  -13.5 °C 1021.9 in /  34601.5 hPa ESE 5.0 mph /  8 km/h 3.2 mph /  5.1 km/h 63 % 0.0 in /  0 mm
14:04 14.3 °F /  -9.8 °C 7.1 °F /  -13.8 °C 1021.9 in /  34601.5 hPa ESE 7.4 mph /  11.9 km/h 5.8 mph /  9.3 km/h 62 % 0.0 in /  0 mm
14:09 14.4 °F /  -9.8 °C 7.2 °F /  -13.8 °C 1021.9 in /  34601.5 hPa NE 4.7 mph /  7.6 km/h   62 % 0.0 in /  0 mm
14:14 14.2 °F /  -9.9 °C 7.0 °F /  -13.9 °C 1021.9 in /  34601.5 hPa ESE 7.9 mph /  12.7 km/h 5.8 mph /  9.3 km/h 62 % 0.0 in /  0 mm
14:19 14.4 °F /  -9.8 °C 7.2 °F /  -13.8 °C 1021.9 in /  34601.5 hPa East 2.6 mph /  4.2 km/h 2.6 mph /  4.2 km/h 62 % 0.0 in /  0 mm
14:24 14.3 °F /  -9.8 °C 7.1 °F /  -13.8 °C 1021.9 in /  34601.5 hPa SSE 7.4 mph /  11.9 km/h 3.2 mph /  5.1 km/h 62 % 0.0 in /  0 mm
14:29 14.8 °F /  -9.6 °C 7.3 °F /  -13.7 °C 1020.9 in /  34567.7 hPa SE 4.7 mph /  7.6 km/h 3.9 mph /  6.3 km/h 61 % 0.0 in /  0 mm
14:34 14.7 °F /  -9.6 °C 7.3 °F /  -13.7 °C 1020.9 in /  34567.7 hPa ENE 5.6 mph /  9 km/h 3.2 mph /  5.1 km/h 61 % 0.0 in /  0 mm
14:39 14.7 °F /  -9.6 °C 7.3 °F /  -13.7 °C 1020.9 in /  34567.7 hPa SE 9.5 mph /  15.3 km/h 6.4 mph /  10.3 km/h 61 % 0.0 in /  0 mm
14:44 15.3 °F /  -9.3 °C 7.8 °F /  -13.4 °C 1020.9 in /  34567.7 hPa ESE 6.9 mph /  11.1 km/h 3.5 mph /  5.6 km/h 61 % 0.0 in /  0 mm
14:49 15.3 °F /  -9.3 °C 7.6 °F /  -13.6 °C 1020.9 in /  34567.7 hPa SSW 5.6 mph /  9 km/h 2.3 mph /  3.7 km/h 60 % 0.0 in /  0 mm
14:54 15.4 °F /  -9.2 °C 7.4 °F /  -13.7 °C 1020.9 in /  34567.7 hPa SE 5.6 mph /  9 km/h 5.3 mph /  8.5 km/h 59 % 0.0 in /  0 mm
14:59 15.5 °F /  -9.2 °C 7.5 °F /  -13.6 °C 1020.9 in /  34567.7 hPa NNE 5.6 mph /  9 km/h 1.4 mph /  2.3 km/h 59 % 0.0 in /  0 mm
15:04 15.2 °F /  -9.3 °C 7.0 °F /  -13.9 °C 1020.9 in /  34567.7 hPa SSE 10.3 mph /  16.6 km/h 6.1 mph /  9.8 km/h 58 % 0.0 in /  0 mm
15:09 15.3 °F /  -9.3 °C 7.1 °F /  -13.8 °C 1020.9 in /  34567.7 hPa NNW 5.0 mph /  8 km/h 3.9 mph /  6.3 km/h 58 % 0.0 in /  0 mm
15:14 15.1 °F /  -9.4 °C 6.6 °F /  -14.1 °C 1019.9 in /  34533.8 hPa ENE 7.4 mph /  11.9 km/h 7.9 mph /  12.7 km/h 57 % 0.0 in /  0 mm
15:19 15.0 °F /  -9.4 °C 6.8 °F /  -14 °C 1019.9 in /  34533.8 hPa East 12.2 mph /  19.6 km/h 7.6 mph /  12.2 km/h 58 % 0.0 in /  0 mm
15:24 15.0 °F /  -9.4 °C 6.8 °F /  -14 °C 1019.9 in /  34533.8 hPa ENE 7.4 mph /  11.9 km/h 6.4 mph /  10.3 km/h 58 % 0.0 in /  0 mm
15:29 15.1 °F /  -9.4 °C 6.9 °F /  -13.9 °C 1019.9 in /  34533.8 hPa East 7.4 mph /  11.9 km/h 5.8 mph /  9.3 km/h 58 % 0.0 in /  0 mm
15:34 15.2 °F /  -9.3 °C 7.0 °F /  -13.9 °C 1019.9 in /  34533.8 hPa East 9.3 mph /  15 km/h 5.8 mph /  9.3 km/h 58 % 0.0 in /  0 mm
15:39 15.0 °F /  -9.4 °C 6.8 °F /  -14 °C 1019.9 in /  34533.8 hPa East 6.1 mph /  9.8 km/h 5.3 mph /  8.5 km/h 58 % 0.0 in /  0 mm
15:44 14.9 °F /  -9.5 °C 6.7 °F /  -14.1 °C 1019.9 in /  34533.8 hPa ESE 9.3 mph /  15 km/h 6.1 mph /  9.8 km/h 58 % 0.0 in /  0 mm
15:49 15.0 °F /  -9.4 °C 6.8 °F /  -14 °C 1019.9 in /  34533.8 hPa NNE 6.1 mph /  9.8 km/h 6.9 mph /  11.1 km/h 58 % 0.0 in /  0 mm
15:54 14.9 °F /  -9.5 °C 6.7 °F /  -14.1 °C 1019.9 in /  34533.8 hPa ENE 7.4 mph /  11.9 km/h 4.7 mph /  7.6 km/h 58 % 0.0 in /  0 mm
15:59 15.0 °F /  -9.4 °C 6.8 °F /  -14 °C 1019.9 in /  34533.8 hPa ESE 11.9 mph /  19.2 km/h 8.7 mph /  14 km/h 58 % 0.0 in /  0 mm
16:04 14.7 °F /  -9.6 °C 6.5 °F /  -14.2 °C 1019.9 in /  34533.8 hPa East 11.1 mph /  17.9 km/h 11.1 mph /  17.9 km/h 58 % 0.0 in /  0 mm
16:09 14.5 °F /  -9.7 °C 6.3 °F /  -14.3 °C 1019.9 in /  34533.8 hPa ENE 11.1 mph /  17.9 km/h 6.9 mph /  11.1 km/h 58 % 0.0 in /  0 mm
16:14 14.5 °F /  -9.7 °C 6.3 °F /  -14.3 °C 1019.9 in /  34533.8 hPa ENE 11.1 mph /  17.9 km/h 6.4 mph /  10.3 km/h 58 % 0.0 in /  0 mm
16:19 14.5 °F /  -9.7 °C 6.6 °F /  -14.1 °C 1019.9 in /  34533.8 hPa ESE 11.4 mph /  18.3 km/h 9.7 mph /  15.6 km/h 59 % 0.0 in /  0 mm
16:24 14.4 °F /  -9.8 °C 6.5 °F /  -14.2 °C 1019.9 in /  34533.8 hPa ESE 9.3 mph /  15 km/h 6.1 mph /  9.8 km/h 59 % 0.0 in /  0 mm
16:29 14.4 °F /  -9.8 °C 6.5 °F /  -14.2 °C 1019.9 in /  34533.8 hPa ESE 9.3 mph /  15 km/h 7.6 mph /  12.2 km/h 59 % 0.0 in /  0 mm
16:34 14.3 °F /  -9.8 °C 6.4 °F /  -14.2 °C 1019.9 in /  34533.8 hPa East 9.3 mph /  15 km/h 9.0 mph /  14.5 km/h 59 % 0.0 in /  0 mm
16:39 14.3 °F /  -9.8 °C 6.4 °F /  -14.2 °C 1019.9 in /  34533.8 hPa ESE 7.9 mph /  12.7 km/h 5.8 mph /  9.3 km/h 59 % 0.0 in /  0 mm
16:44 14.3 °F /  -9.8 °C 6.6 °F /  -14.1 °C 1019.9 in /  34533.8 hPa ESE 9.3 mph /  15 km/h 7.2 mph /  11.6 km/h 60 % 0.0 in /  0 mm
16:49 14.1 °F /  -9.9 °C 6.4 °F /  -14.2 °C 1019.9 in /  34533.8 hPa SSW 11.1 mph /  17.9 km/h 9.5 mph /  15.3 km/h 60 % 0.0 in /  0 mm
16:54 14.1 °F /  -9.9 °C 6.4 °F /  -14.2 °C 1019.9 in /  34533.8 hPa East 9.3 mph /  15 km/h 6.9 mph /  11.1 km/h 60 % 0.0 in /  0 mm
16:59 13.9 °F /  -10.1 °C 6.3 °F /  -14.3 °C 1019.9 in /  34533.8 hPa ESE 11.1 mph /  17.9 km/h 9.0 mph /  14.5 km/h 60 % 0.0 in /  0 mm
17:04 13.7 °F /  -10.2 °C 6.3 °F /  -14.3 °C 1019.9 in /  34533.8 hPa ESE 9.3 mph /  15 km/h 9.0 mph /  14.5 km/h 61 % 0.0 in /  0 mm
17:09 13.7 °F /  -10.2 °C 6.3 °F /  -14.3 °C 1019.9 in /  34533.8 hPa East 9.3 mph /  15 km/h 5.0 mph /  8 km/h 61 % 0.0 in /  0 mm
17:14 13.6 °F /  -10.2 °C 6.2 °F /  -14.3 °C 1019.9 in /  34533.8 hPa East 7.4 mph /  11.9 km/h 5.0 mph /  8 km/h 61 % 0.0 in /  0 mm
17:19 13.4 °F /  -10.3 °C 6.0 °F /  -14.4 °C 1019.9 in /  34533.8 hPa East 7.4 mph /  11.9 km/h 5.0 mph /  8 km/h 61 % 0.0 in /  0 mm
17:24 13.2 °F /  -10.4 °C 6.1 °F /  -14.4 °C 1019.9 in /  34533.8 hPa SE 7.4 mph /  11.9 km/h 7.2 mph /  11.6 km/h 62 % 0.0 in /  0 mm
17:29 13.0 °F /  -10.6 °C 5.9 °F /  -14.5 °C 1019.9 in /  34533.8 hPa ESE 7.4 mph /  11.9 km/h 4.2 mph /  6.8 km/h 62 % 0.0 in /  0 mm
17:34 12.9 °F /  -10.6 °C 6.0 °F /  -14.4 °C 1019.9 in /  34533.8 hPa ESE 7.4 mph /  11.9 km/h 4.2 mph /  6.8 km/h 63 % 0.0 in /  0 mm
17:39 12.8 °F /  -10.7 °C 5.9 °F /  -14.5 °C 1019.9 in /  34533.8 hPa ENE 7.4 mph /  11.9 km/h 7.9 mph /  12.7 km/h 63 % 0.0 in /  0 mm
17:43 12.7 °F /  -10.7 °C 5.8 °F /  -14.6 °C 1019.9 in /  34533.8 hPa East 9.3 mph /  15 km/h 3.5 mph /  5.6 km/h 63 % 0.0 in /  0 mm
17:49 12.5 °F /  -10.8 °C 5.9 °F /  -14.5 °C 1019.9 in /  34533.8 hPa ESE 13.0 mph /  20.9 km/h 6.4 mph /  10.3 km/h 64 % 0.0 in /  0 mm
17:54 12.4 °F /  -10.9 °C 5.8 °F /  -14.6 °C 1019.9 in /  34533.8 hPa ENE 9.3 mph /  15 km/h 7.2 mph /  11.6 km/h 64 % 0.0 in /  0 mm
17:59 12.3 °F /  -10.9 °C 5.7 °F /  -14.6 °C 1019.9 in /  34533.8 hPa NE 9.3 mph /  15 km/h 6.4 mph /  10.3 km/h 64 % 0.0 in /  0 mm
18:04 12.2 °F /  -11 °C 5.8 °F /  -14.6 °C 1019.9 in /  34533.8 hPa ENE 9.3 mph /  15 km/h 7.2 mph /  11.6 km/h 65 % 0.0 in /  0 mm
18:09 12.0 °F /  -11.1 °C 5.6 °F /  -14.7 °C 1019.9 in /  34533.8 hPa ENE 9.3 mph /  15 km/h 3.5 mph /  5.6 km/h 65 % 0.0 in /  0 mm
18:14 11.9 °F /  -11.2 °C 5.7 °F /  -14.6 °C 1019.9 in /  34533.8 hPa ENE 13.0 mph /  20.9 km/h 7.6 mph /  12.2 km/h 66 % 0.0 in /  0 mm
18:19 11.7 °F /  -11.3 °C 5.6 °F /  -14.7 °C 1019.9 in /  34533.8 hPa ENE 9.5 mph /  15.3 km/h 8.7 mph /  14 km/h 66 % 0.0 in /  0 mm
18:24 11.6 °F /  -11.3 °C 5.4 °F /  -14.8 °C 1019.9 in /  34533.8 hPa ESE 7.4 mph /  11.9 km/h 5.3 mph /  8.5 km/h 66 % 0.0 in /  0 mm
18:29 11.4 °F /  -11.4 °C 5.5 °F /  -14.7 °C 1019.9 in /  34533.8 hPa East 6.1 mph /  9.8 km/h 5.0 mph /  8 km/h 67 % 0.0 in /  0 mm
18:34 11.3 °F /  -11.5 °C 5.4 °F /  -14.8 °C 1019.9 in /  34533.8 hPa ESE 5.6 mph /  9 km/h 5.3 mph /  8.5 km/h 67 % 0.0 in /  0 mm
18:39 11.2 °F /  -11.6 °C 5.5 °F /  -14.7 °C 1019.9 in /  34533.8 hPa ESE 5.6 mph /  9 km/h 5.3 mph /  8.5 km/h 68 % 0.0 in /  0 mm
18:44 11.1 °F /  -11.6 °C 5.4 °F /  -14.8 °C 1019.9 in /  34533.8 hPa ESE 5.6 mph /  9 km/h 5.3 mph /  8.5 km/h 68 % 0.0 in /  0 mm
18:49 11.0 °F /  -11.7 °C 5.3 °F /  -14.8 °C 1019.9 in /  34533.8 hPa ENE 4.7 mph /  7.6 km/h 6.4 mph /  10.3 km/h 68 % 0.0 in /  0 mm
18:54 11.0 °F /  -11.7 °C 5.5 °F /  -14.7 °C 1019.9 in /  34533.8 hPa ENE 4.7 mph /  7.6 km/h 6.4 mph /  10.3 km/h 69 % 0.0 in /  0 mm
18:59 10.9 °F /  -11.7 °C 5.4 °F /  -14.8 °C 1019.9 in /  34533.8 hPa ESE 7.4 mph /  11.9 km/h 5.0 mph /  8 km/h 69 % 0.0 in /  0 mm
19:04 10.8 °F /  -11.8 °C 5.3 °F /  -14.8 °C 1019.9 in /  34533.8 hPa East 7.4 mph /  11.9 km/h 3.5 mph /  5.6 km/h 69 % 0.0 in /  0 mm
19:09 10.8 °F /  -11.8 °C 5.6 °F /  -14.7 °C 1019.9 in /  34533.8 hPa East 2.6 mph /  4.2 km/h 3.5 mph /  5.6 km/h 70 % 0.0 in /  0 mm
19:14 10.7 °F /  -11.8 °C 5.4 °F /  -14.8 °C 1019.9 in /  34533.8 hPa East 3.7 mph /  6 km/h 4.2 mph /  6.8 km/h 70 % 0.0 in /  0 mm
19:19 10.6 °F /  -11.9 °C 5.3 °F /  -14.8 °C 1019.9 in /  34533.8 hPa ENE 5.6 mph /  9 km/h 2.6 mph /  4.2 km/h 70 % 0.0 in /  0 mm
19:24 10.5 °F /  -11.9 °C 5.4 °F /  -14.8 °C 1019.9 in /  34533.8 hPa NNE 4.2 mph /  6.8 km/h 3.9 mph /  6.3 km/h 71 % 0.0 in /  0 mm
19:29 10.5 °F /  -11.9 °C 5.4 °F /  -14.8 °C 1020.9 in /  34567.7 hPa NNE 3.7 mph /  6 km/h 4.7 mph /  7.6 km/h 71 % 0.0 in /  0 mm
19:34 10.4 °F /  -12 °C 5.4 °F /  -14.8 °C 1020.9 in /  34567.7 hPa ESE 5.8 mph /  9.3 km/h 3.9 mph /  6.3 km/h 71 % 0.0 in /  0 mm
19:39 10.4 °F /  -12 °C 5.6 °F /  -14.7 °C 1020.9 in /  34567.7 hPa East 4.2 mph /  6.8 km/h 3.5 mph /  5.6 km/h 72 % 0.0 in /  0 mm
19:44 10.3 °F /  -12.1 °C 5.4 °F /  -14.8 °C 1020.9 in /  34567.7 hPa East 5.0 mph /  8 km/h 4.2 mph /  6.8 km/h 72 % 0.0 in /  0 mm
19:49 10.3 °F /  -12.1 °C 5.4 °F /  -14.8 °C 1020.9 in /  34567.7 hPa ENE 4.7 mph /  7.6 km/h 3.5 mph /  5.6 km/h 72 % 0.0 in /  0 mm
19:54 10.2 °F /  -12.1 °C 5.4 °F /  -14.8 °C 1020.9 in /  34567.7 hPa East 2.3 mph /  3.7 km/h   72 % 0.0 in /  0 mm
19:59 10.2 °F /  -12.1 °C 5.6 °F /  -14.7 °C 1020.9 in /  34567.7 hPa ENE 5.6 mph /  9 km/h 3.9 mph /  6.3 km/h 73 % 0.0 in /  0 mm
20:04 10.3 °F /  -12.1 °C 5.7 °F /  -14.6 °C 1020.9 in /  34567.7 hPa ESE 4.7 mph /  7.6 km/h 2.3 mph /  3.7 km/h 73 % 0.0 in /  0 mm
20:09 10.3 °F /  -12.1 °C 5.7 °F /  -14.6 °C 1020.9 in /  34567.7 hPa ESE 4.7 mph /  7.6 km/h 2.3 mph /  3.7 km/h 73 % 0.0 in /  0 mm
20:14 10.3 °F /  -12.1 °C 5.7 °F /  -14.6 °C 1020.9 in /  34567.7 hPa East 3.7 mph /  6 km/h 1.9 mph /  3.1 km/h 73 % 0.0 in /  0 mm
20:19 10.3 °F /  -12.1 °C 5.7 °F /  -14.6 °C 1020.9 in /  34567.7 hPa Calm   3.2 mph /  5.1 km/h 73 % 0.0 in /  0 mm
20:24 10.2 °F /  -12.1 °C 5.4 °F /  -14.8 °C 1020.9 in /  34567.7 hPa Calm   3.2 mph /  5.1 km/h 72 % 0.0 in /  0 mm
Meteo Sesrovires
Elogis d' Weather Underground - 1.5 mb

Guio original per  Jim McMurry - jmcmurry@mwt.net Adaptat per a la plantilla per  Wim van der Kuil - Leuven-Template.eu

Trobareu la nostra informacio del temps tambe a:

Weather Underground

AWEKAS